Airfield :
LOGIN :

Register | Disclaimer

   EN    FR    IT 

 










Legend :    VFR   Marginal VFR   IFR   Intensive IFR   Very Intensive IFR
Visi :
Ceiling :
>= 8 km
>= 3000ft
5 to 8 km
1000 to 3000 ft
1500m to 5 km
500 to 1000 ft
800 to 1500m
200 to 500 ft
< 800m
< 200 ft
Symbols :   Thunderstorms  Fog  Heavy snow  Heavy precipitations  Wind > 20 kt
SIGMETs :     Misc.  Thunderstorms  Icing  Turbulence  Mountain Waves  Volcanic Ashes






- Airport Elevation : 18 ft
- IATA code : AJA


LFKJ - Ajaccio

CURRENT METAR :
  • 170330Z AUTO 34004KT 310V010 9999 -RA SCT062 OVC072 16/13 Q1011 TEMPO RA BKN008 BKN060

EXPIRED METARs :
  • 170300Z AUTO 36005KT 320V030 9999 OVC058 17/13 Q1011 TEMPO RA BKN008 BKN060
  • 170230Z AUTO 31006KT 9999 FEW036 OVC060 17/13 Q1011 TEMPO BKN010 BKN070
  • 170200Z AUTO 35006KT 320V030 9999 FEW025 OVC064 17/13 Q1011 TEMPO BKN010 BKN070
  • 170130Z AUTO 04005KT 320V080 9999 FEW008 SCT041 OVC066 16/14 Q1011 TEMPO BKN010 BKN070
  • 170100Z AUTO 15002KT 9999 OVC070 16/14 Q1011 TEMPO BKN010 BKN070

TAF TAF LFKJ
Valid from the 17 at 03:00 until the 18 at 03:00 UTC


170200Z 1703/1803 05004KT 9999 FEW025 BKN065
TEMPO 1703/1706 RA BKN008 BKN060
BECMG 1706/1708 29010KT
BECMG 1708/1711 CAVOK
BECMG 1717/1719 04004KT
ATIS : +33 4 95 23 59 85



MET'MAP, your aeronautical weather chart ! - Copyright ORBIFLY December 2007 - Disclaimer

ORBIFLY MET'MAP TEAM :

Programming & Development : Alexandra Zaïnal
Concept & original design : Baudouin d'Aumeries
Assistance for programming : Marc-Olivier Méhu
Technical & hardware support : Manuel Goepfert

Contact : metmap@orbifly.com




SOURCES & CREDITS :

   NOAA